createdAt,value
2023-03-23T15:58:18.720Z,97502.78
2023-03-23T16:01:44.057Z,97493.13
2023-03-23T16:05:06.671Z,97500.31
2023-03-23T16:08:28.877Z,97489.41
2023-03-23T16:11:50.894Z,97507.94
2023-03-23T16:15:15.590Z,97502.00
2023-03-23T16:18:38.454Z,97491.41
2023-03-23T16:22:00.506Z,97483.91
2023-03-23T16:25:24.692Z,97497.59
2023-03-23T16:28:48.502Z,97489.84
2023-03-23T16:32:10.324Z,97483.56
2023-03-23T16:35:32.405Z,97480.63
2023-03-23T16:38:54.878Z,97476.34
2023-03-23T16:42:16.757Z,97468.47
2023-03-23T16:45:43.946Z,97462.66
2023-03-23T16:49:06.074Z,97461.81
2023-03-23T16:52:28.225Z,97462.56
2023-03-23T16:55:54.532Z,97467.88
2023-03-23T16:59:19.875Z,97466.72
2023-03-23T17:02:44.914Z,97469.34
2023-03-23T17:06:08.579Z,97482.16
2023-03-23T17:09:30.435Z,97471.38
2023-03-23T17:12:52.823Z,97476.00
2023-03-23T17:16:15.811Z,97480.75
2023-03-23T17:19:38.137Z,97476.22
2023-03-23T17:23:00.175Z,97473.56
2023-03-23T17:26:22.025Z,97468.13
2023-03-23T17:29:45.424Z,97465.56
2023-03-23T17:33:10.930Z,97466.13
2023-03-23T17:36:33.006Z,97470.56
2023-03-23T17:39:54.874Z,97455.16
2023-03-23T17:43:17.721Z,97466.66
2023-03-23T17:46:43.762Z,97462.59
2023-03-23T17:50:12.311Z,97457.25
2023-03-23T17:53:35.882Z,97459.06
2023-03-23T17:57:03.992Z,97467.63
2023-03-23T18:00:31.905Z,97462.00
2023-03-23T18:03:53.859Z,97452.22
2023-03-23T18:07:15.852Z,97462.00
2023-03-23T18:10:41.992Z,97469.19
2023-03-23T18:14:08.189Z,97462.19
2023-03-23T18:17:30.211Z,97461.75
2023-03-23T18:21:05.946Z,97460.75
2023-03-23T18:24:40.835Z,97461.41
2023-03-23T18:28:07.068Z,97455.53
2023-03-23T18:31:31.067Z,97453.84
2023-03-23T18:34:53.316Z,97445.94
2023-03-23T18:38:19.348Z,97451.34
2023-03-23T18:41:51.474Z,97438.72
2023-03-23T18:45:13.622Z,97440.41
2023-03-23T18:48:37.490Z,97441.16
2023-03-23T18:52:00.490Z,97443.16
2023-03-23T18:55:23.762Z,97443.91
2023-03-23T18:58:46.259Z,97441.03
2023-03-23T19:02:11.658Z,97438.09
2023-03-23T19:05:39.540Z,97441.22
2023-03-23T19:09:01.489Z,97442.06
2023-03-23T19:12:25.690Z,97445.66
2023-03-23T19:15:47.627Z,97444.00
2023-03-23T19:19:13.898Z,97447.59
2023-03-23T19:22:40.518Z,97438.38
2023-03-23T19:26:04.091Z,97438.56
2023-03-23T19:29:27.453Z,97438.09
2023-03-23T19:32:49.699Z,97433.13
2023-03-23T19:36:13.202Z,97439.31
2023-03-23T19:39:36.451Z,97430.16
2023-03-23T19:42:58.874Z,97427.97
2023-03-23T19:46:20.871Z,97431.38
2023-03-23T19:49:45.494Z,97416.34
2023-03-23T19:53:07.334Z,97411.00
2023-03-23T19:56:35.032Z,97415.72
2023-03-23T19:59:59.040Z,97408.41
2023-03-23T20:03:22.584Z,97411.13
2023-03-23T20:06:52.700Z,97407.06
2023-03-23T20:10:21.455Z,97405.47
2023-03-23T20:13:44.890Z,97413.03
2023-03-23T20:17:09.714Z,97409.72
2023-03-23T20:20:31.929Z,97400.25
2023-03-23T20:24:00.300Z,97404.38
2023-03-23T20:27:23.263Z,97402.34
2023-03-23T20:30:46.128Z,97407.13
2023-03-23T20:34:31.753Z,97402.25
2023-03-23T20:37:53.902Z,97401.34
2023-03-23T20:41:20.702Z,97397.00
2023-03-23T20:44:43.005Z,97398.22
2023-03-23T20:48:05.665Z,97396.63
2023-03-23T20:51:28.034Z,97394.97
2023-03-23T20:54:50.767Z,97404.47
2023-03-23T20:58:12.715Z,97407.13
2023-03-23T21:01:35.310Z,97402.16
2023-03-23T21:05:04.742Z,97400.97
2023-03-23T21:08:27.159Z,97396.44
2023-03-23T21:11:50.366Z,97404.91
2023-03-23T21:15:15.510Z,97387.59
2023-03-23T21:18:43.584Z,97388.53
2023-03-23T21:22:06.912Z,97390.91
2023-03-23T21:25:34.015Z,97370.94
2023-03-23T21:29:00.358Z,97372.69
2023-03-23T21:32:26.476Z,97368.44
2023-03-23T21:35:48.295Z,97356.47
2023-03-23T21:39:10.510Z,97347.84
2023-03-23T21:42:32.532Z,97352.34
2023-03-23T21:45:59.223Z,97348.66
2023-03-23T21:49:21.043Z,97355.22
2023-03-23T21:52:43.799Z,97362.03
2023-03-23T21:56:09.497Z,97346.63
2023-03-23T21:59:31.312Z,97349.09
2023-03-23T22:02:53.205Z,97335.94
2023-03-23T22:06:26.576Z,97316.53
2023-03-23T22:09:48.574Z,97298.31
2023-03-23T22:13:11.975Z,97294.19
2023-03-23T22:16:38.376Z,97278.38
2023-03-23T22:20:00.250Z,97272.00
2023-03-23T22:23:23.249Z,97268.34
2023-03-23T22:26:46.222Z,97263.72
2023-03-23T22:30:08.774Z,97267.50
2023-03-23T22:33:32.023Z,97253.34
2023-03-23T22:36:53.886Z,97250.03
2023-03-23T22:40:16.034Z,97245.97
2023-03-23T22:43:38.243Z,97237.78
2023-03-23T22:47:00.376Z,97229.13
2023-03-23T22:50:24.134Z,97241.44
2023-03-23T22:53:49.832Z,97239.34
2023-03-23T22:57:11.713Z,97222.03
2023-03-23T23:00:33.769Z,97216.03
2023-03-23T23:03:55.824Z,97207.41
2023-03-23T23:07:19.234Z,97210.53
2023-03-23T23:10:44.738Z,97194.53
2023-03-23T23:14:08.725Z,97203.34
2023-03-23T23:17:34.953Z,97190.31
2023-03-23T23:21:00.697Z,97185.03
2023-03-23T23:24:26.219Z,97172.63
2023-03-23T23:27:48.098Z,97172.44
2023-03-23T23:31:29.040Z,97164.53
2023-03-23T23:34:52.866Z,97168.94
2023-03-23T23:38:20.980Z,97159.28
2023-03-23T23:41:43.082Z,97157.44
2023-03-23T23:45:09.567Z,97159.19
2023-03-23T23:48:31.387Z,97157.16
2023-03-23T23:51:53.313Z,97160.41
2023-03-23T23:55:25.091Z,97157.47
2023-03-23T23:58:48.571Z,97150.38
